createdAt,value
2017-09-16T00:04:13.906Z,99.10
2017-09-16T00:09:17.116Z,98.50
2017-09-16T00:14:20.298Z,99.40
2017-09-16T00:19:23.526Z,98.70
2017-09-16T00:24:26.727Z,98.40
2017-09-16T00:29:29.936Z,98.80
2017-09-16T00:34:33.116Z,98.60
2017-09-16T00:39:36.325Z,99.20
2017-09-16T00:44:39.534Z,99.90
2017-09-16T00:54:52.202Z,99.70
2017-09-16T00:59:55.447Z,99.00
2017-09-16T01:04:58.619Z,99.60
2017-09-16T01:10:01.862Z,99.90
2017-09-16T01:15:05.067Z,99.90
2017-09-16T01:20:08.269Z,99.40
2017-09-16T01:25:11.464Z,99.40
2017-09-16T01:30:14.684Z,99.00
2017-09-16T01:35:17.881Z,99.40
2017-09-16T01:40:21.059Z,99.00
2017-09-16T01:45:24.257Z,99.00
2017-09-16T01:50:27.478Z,99.40
2017-09-16T01:55:30.685Z,99.50
2017-09-16T02:00:34.015Z,99.20
2017-09-16T02:05:37.257Z,98.10
2017-09-16T02:10:41.231Z,99.60
2017-09-16T02:15:44.436Z,99.60
2017-09-16T02:20:47.665Z,99.90
2017-09-16T02:25:50.874Z,99.90
2017-09-16T02:30:54.075Z,99.70
2017-09-16T02:35:57.314Z,99.50
2017-09-16T02:41:01.275Z,99.90
2017-09-16T02:46:04.469Z,99.90
2017-09-16T02:51:07.756Z,99.90
2017-09-16T02:56:11.759Z,99.90
2017-09-16T03:01:15.004Z,99.90
2017-09-16T03:06:18.228Z,99.90
2017-09-16T03:11:21.451Z,99.90
2017-09-16T03:16:24.648Z,99.90
2017-09-16T03:21:27.914Z,99.90
2017-09-16T03:26:31.886Z,99.90
2017-09-16T03:31:35.091Z,99.90
2017-09-16T03:36:38.441Z,99.90
2017-09-16T03:41:42.407Z,99.90
2017-09-16T03:46:45.625Z,99.90
2017-09-16T03:51:48.808Z,99.90
2017-09-16T03:56:52.029Z,99.90
2017-09-16T04:18:05.536Z,99.90
2017-09-16T04:23:08.727Z,99.90
2017-09-16T04:28:11.917Z,99.90
2017-09-16T04:33:15.096Z,99.90
2017-09-16T04:38:18.285Z,99.40
2017-09-16T04:43:21.540Z,99.90
2017-09-16T04:48:24.746Z,99.40
2017-09-16T04:53:27.956Z,99.90
2017-09-16T04:58:31.172Z,99.90
2017-09-16T05:03:34.383Z,99.90
2017-09-16T05:08:37.579Z,99.90
2017-09-16T05:13:40.775Z,99.90
2017-09-16T05:18:43.958Z,99.90
2017-09-16T05:23:47.176Z,99.60
2017-09-16T05:28:50.363Z,98.80
2017-09-16T05:33:53.552Z,98.50
2017-09-16T05:38:57.508Z,93.90
2017-09-16T05:44:00.704Z,93.90
2017-09-16T05:49:03.893Z,94.40
2017-09-16T05:54:07.089Z,96.30
2017-09-16T05:59:11.073Z,99.90
2017-09-16T06:04:14.283Z,99.90
2017-09-16T06:09:17.498Z,99.90
2017-09-16T06:14:20.702Z,98.60
2017-09-16T06:19:23.924Z,99.90
2017-09-16T06:24:27.133Z,99.30
2017-09-16T06:29:30.354Z,98.70
2017-09-16T06:34:34.330Z,98.00
2017-09-16T06:39:37.534Z,98.00
2017-09-16T06:44:40.744Z,95.90
2017-09-16T06:49:43.946Z,94.60
2017-09-16T06:54:47.148Z,97.70
2017-09-16T06:59:50.351Z,96.50
2017-09-16T07:04:53.542Z,95.90
2017-09-16T07:09:57.026Z,94.00
2017-09-16T07:15:01.014Z,97.40
2017-09-16T07:20:04.246Z,97.40
2017-09-16T07:25:07.541Z,96.30
2017-09-16T07:30:10.752Z,92.40
2017-09-16T07:35:14.026Z,89.40
2017-09-16T07:40:17.257Z,83.20
2017-09-16T07:45:20.472Z,82.80
2017-09-16T07:50:23.678Z,87.10
2017-09-16T07:55:28.783Z,86.00
2017-09-16T08:00:32.176Z,83.50
2017-09-16T08:05:36.288Z,82.00
2017-09-16T08:10:39.517Z,82.00
2017-09-16T08:15:43.494Z,79.30
2017-09-16T08:20:46.701Z,79.50
2017-09-16T08:25:49.933Z,82.70
2017-09-16T08:30:53.161Z,76.10
2017-09-16T08:35:56.461Z,73.10
2017-09-16T08:41:00.457Z,82.70
2017-09-16T08:46:03.726Z,82.80
2017-09-16T08:51:06.942Z,86.10
2017-09-16T08:56:10.493Z,87.90
2017-09-16T09:01:14.651Z,88.50
2017-09-16T09:06:18.631Z,87.30
2017-09-16T09:11:21.867Z,87.30
2017-09-16T09:16:25.853Z,89.50
2017-09-16T09:21:29.194Z,88.90
2017-09-16T09:26:32.430Z,86.70
2017-09-16T09:31:36.474Z,85.10
2017-09-16T09:36:39.725Z,85.10
2017-09-16T09:41:43.110Z,83.70
2017-09-16T09:46:46.485Z,82.60
2017-09-16T09:51:50.467Z,84.80
2017-09-16T09:56:53.761Z,84.80
2017-09-16T10:01:56.998Z,83.80
2017-09-16T10:07:00.265Z,85.50
2017-09-16T10:12:03.492Z,79.90
2017-09-16T10:17:06.717Z,76.80
2017-09-16T10:22:09.918Z,76.40
2017-09-16T10:27:14.128Z,78.00
2017-09-16T10:32:17.337Z,78.30
2017-09-16T10:37:20.551Z,78.50
2017-09-16T10:42:24.201Z,79.20
2017-09-16T10:47:28.916Z,77.10
2017-09-16T10:52:32.512Z,74.70
2017-09-16T10:57:35.839Z,71.90
2017-09-16T11:02:39.063Z,71.00
2017-09-16T11:07:43.891Z,71.10
2017-09-16T11:12:47.908Z,72.40
2017-09-16T11:17:51.561Z,72.30
2017-09-16T11:22:54.792Z,69.90
2017-09-16T11:27:58.773Z,68.10
2017-09-16T11:33:02.086Z,67.90
2017-09-16T11:38:05.321Z,66.50
2017-09-16T11:43:09.295Z,63.00
2017-09-16T11:48:12.475Z,62.90
2017-09-16T11:53:15.710Z,60.70
2017-09-16T11:58:18.944Z,58.50
2017-09-16T12:03:22.153Z,58.20
2017-09-16T12:08:25.744Z,52.90
2017-09-16T12:13:28.916Z,59.60
2017-09-16T12:18:32.148Z,58.80
2017-09-16T12:23:35.315Z,57.50
2017-09-16T12:28:38.722Z,56.10
2017-09-16T12:33:42.706Z,56.00
2017-09-16T12:38:46.725Z,53.80
2017-09-16T12:43:50.040Z,53.80
2017-09-16T12:48:53.249Z,55.40
2017-09-16T12:53:56.466Z,56.10
2017-09-16T12:58:59.741Z,56.30
2017-09-16T13:04:02.977Z,55.20
2017-09-16T13:09:06.200Z,54.60
2017-09-16T13:14:09.424Z,56.90
2017-09-16T13:19:13.403Z,63.90
2017-09-16T13:24:16.621Z,63.90
2017-09-16T13:29:19.818Z,69.80
2017-09-16T13:34:23.054Z,74.80
2017-09-16T13:39:26.296Z,81.30
2017-09-16T13:44:29.518Z,87.80
2017-09-16T13:49:32.734Z,90.00
2017-09-16T13:54:35.969Z,93.40
2017-09-16T13:59:39.185Z,94.80
2017-09-16T14:04:42.486Z,95.90
2017-09-16T14:09:45.729Z,96.50
2017-09-16T14:14:49.751Z,96.00
2017-09-16T14:19:53.725Z,93.00
2017-09-16T14:24:56.921Z,93.00
2017-09-16T14:30:00.129Z,96.90
2017-09-16T14:35:03.695Z,96.00
2017-09-16T14:40:07.650Z,83.30
2017-09-16T14:45:11.688Z,89.20
2017-09-16T14:50:14.933Z,89.20
2017-09-16T14:55:18.148Z,91.60
2017-09-16T15:00:22.360Z,88.80
2017-09-16T15:05:26.536Z,89.80
2017-09-16T15:10:30.634Z,86.80
2017-09-16T15:15:33.867Z,86.70
2017-09-16T15:20:37.839Z,86.20
2017-09-16T15:25:41.045Z,86.20
2017-09-16T15:30:44.504Z,81.30
2017-09-16T15:35:48.527Z,80.10
2017-09-16T15:40:52.492Z,82.70
2017-09-16T15:45:55.754Z,82.10
2017-09-16T15:50:59.733Z,80.30
2017-09-16T15:56:02.966Z,80.40
2017-09-16T16:01:06.182Z,80.70
2017-09-16T16:06:09.397Z,82.20
2017-09-16T16:11:13.374Z,82.30
2017-09-16T16:16:16.633Z,82.30
2017-09-16T16:21:20.617Z,84.50
2017-09-16T16:26:23.979Z,84.30
2017-09-16T16:31:27.962Z,83.90
2017-09-16T16:36:31.181Z,83.90
2017-09-16T16:41:34.402Z,83.60
2017-09-16T16:46:37.706Z,85.50
2017-09-16T16:51:41.679Z,85.70
2017-09-16T16:56:44.944Z,85.10
2017-09-16T17:01:48.165Z,85.40
2017-09-16T17:06:52.144Z,88.50
2017-09-16T17:11:55.330Z,88.50
2017-09-16T17:16:58.661Z,90.70
2017-09-16T17:22:01.902Z,88.90
2017-09-16T17:27:05.124Z,90.10
2017-09-16T17:32:08.462Z,89.80
2017-09-16T17:37:11.705Z,90.40
2017-09-16T17:42:14.969Z,90.70
2017-09-16T17:47:18.201Z,90.90
2017-09-16T17:52:21.439Z,91.00
2017-09-16T17:57:24.751Z,91.20
2017-09-16T18:02:28.084Z,92.60
2017-09-16T18:07:31.507Z,92.70
2017-09-16T18:12:34.899Z,92.90
2017-09-16T18:17:38.902Z,94.20
2017-09-16T18:22:42.134Z,94.20
2017-09-16T18:27:46.141Z,93.60
2017-09-16T18:32:49.367Z,93.60
2017-09-16T18:37:53.363Z,92.60
2017-09-16T18:42:56.592Z,92.50
2017-09-16T18:48:00.627Z,92.90
2017-09-16T18:53:04.604Z,94.10
2017-09-16T18:58:07.945Z,94.10
2017-09-16T19:03:12.040Z,94.10
2017-09-16T19:08:15.260Z,94.10
2017-09-16T19:13:18.575Z,95.20
2017-09-16T19:18:21.801Z,95.10
2017-09-16T19:23:25.919Z,94.20
2017-09-16T19:28:29.217Z,94.90
2017-09-16T19:33:32.415Z,93.90
2017-09-16T19:38:35.666Z,94.40
2017-09-16T19:43:38.871Z,91.60
2017-09-16T19:48:42.106Z,92.60
2017-09-16T19:53:45.312Z,97.40
2017-09-16T19:58:48.625Z,98.10
2017-09-16T20:03:51.822Z,98.50
2017-09-16T20:08:55.163Z,98.10
2017-09-16T20:13:58.371Z,99.00
2017-09-16T20:19:01.611Z,98.20
2017-09-16T20:24:05.616Z,97.30
2017-09-16T20:29:08.824Z,97.30
2017-09-16T20:34:12.056Z,97.60
2017-09-16T20:39:16.085Z,99.00
2017-09-16T20:44:19.319Z,99.00
2017-09-16T20:49:22.573Z,99.70
2017-09-16T20:54:25.817Z,99.90
2017-09-16T20:59:29.082Z,99.90
2017-09-16T21:04:32.317Z,99.90
2017-09-16T21:09:36.293Z,99.90
2017-09-16T21:14:39.509Z,99.90
2017-09-16T21:19:42.738Z,99.90
2017-09-16T21:24:45.964Z,99.90
2017-09-16T21:29:50.041Z,99.90
2017-09-16T21:34:53.266Z,99.90
2017-09-16T21:39:56.495Z,99.90
2017-09-16T21:45:00.518Z,99.90
2017-09-16T21:50:04.483Z,99.90
2017-09-16T21:55:07.695Z,99.90
2017-09-16T22:00:11.039Z,99.90
2017-09-16T22:05:14.236Z,99.90
2017-09-16T22:10:17.553Z,99.90
2017-09-16T22:15:20.781Z,99.90
2017-09-16T22:20:24.757Z,99.90
2017-09-16T22:25:27.987Z,99.90
2017-09-16T22:30:31.186Z,99.90
2017-09-16T22:35:34.386Z,99.90
2017-09-16T22:40:37.812Z,99.90
2017-09-16T22:45:41.010Z,99.90
2017-09-16T22:50:44.222Z,99.90
2017-09-16T22:55:47.424Z,99.90
2017-09-16T23:00:50.880Z,99.90
2017-09-16T23:05:54.846Z,99.90
2017-09-16T23:10:58.044Z,99.90
2017-09-16T23:16:01.246Z,99.90
2017-09-16T23:21:04.467Z,99.90
2017-09-16T23:26:07.695Z,99.90
2017-09-16T23:31:10.940Z,99.90
2017-09-16T23:36:14.956Z,99.90
2017-09-16T23:41:18.939Z,99.90
2017-09-16T23:46:22.338Z,99.90
2017-09-16T23:51:25.546Z,99.90
2017-09-16T23:56:28.749Z,99.90
